CheckWX is a tool to help pilots better visualize weather data.  It is not intended as a substitute for an official pre-flight weather briefing.

08:21:16 UTC

SLVR TAF
Viru Viru International Airport
Santa Cruz, Bolivia
TAF SLVR 190355Z 1906/2006 34005KT 8000 -RA BKN010 BKN070 FEW030CB TX32/1919Z TN21/1910Z BECMG 1914/1916 35015G25KT 9999 NSW SCT012 BKN017 TEMPO 1918/1920 8000 SHRA BKN023 FEW030CB BECMG 1923/2002 35010KT 9999 NSW SCT017

Mar-19@
06:00 UTC

Mar-19 @ 06:00 UTC

Mar-19@
14:00 UTC

Mar-19 @ 14:00 UTC

TAF SLVR 190355Z 1906/2006 34005KT 8000 -RA BKN010 BKN070 FEW030CB TX32/1919Z TN21/1910Z
Wind
  • 340° at 5 KTS
Conditions
Light Rain
Cloud Levels
  • Broken at 1,000' AGL
  • Broken at 7,000' AGL
  • Few at 3,000' AGL

Mar-19@
14:00 UTC

Mar-19 @ 14:00 UTC

Mar-19@
23:00 UTC

Mar-19 @ 23:00 UTC

BECMG 1914/1916 35015G25KT 9999 NSW SCT012 BKN017

Becoming

Becoming Conditions expected by Tue, Mar 19, 2019 @ 16:00 UTC

Wind
  • 350° at 15 KTS
  • {Gusting to 25 KTS
Conditions
No significant weather
Cloud Levels
  • Scattered at 1,200' AGL
  • Broken at 1,700' AGL

Mar-19@
18:00 UTC

Mar-19 @ 18:00 UTC

Mar-19@
20:00 UTC

Mar-19 @ 20:00 UTC

TEMPO 1918/1920 8000 SHRA BKN023 FEW030CB

Temporary

Temporary Changes expected for less than half the time period

Conditions
Rain
Cloud Levels
  • Broken at 2,300' AGL
  • Few at 3,000' AGL

Mar-19@
23:00 UTC

Mar-19 @ 23:00 UTC

Mar-20@
06:00 UTC

Mar-20 @ 06:00 UTC

BECMG 1923/2002 35010KT 9999 NSW SCT017

Becoming

Becoming Conditions expected by Wed, Mar 20, 2019 @ 02:00 UTC

Wind
  • 350° at 10 KTS
Conditions
No significant weather
Cloud Levels
  • Scattered at 1,700' AGL